Current | Forecast
Updated: 3:30 PM MSK on August 19, 2017
Observed at Syktyvkar, Russia
Temperature 66°F
Humidity 78%
Dew Point 59°F
Wind South at 9 mph
Pressure 30.06 in (Falling)
Conditions Scattered Clouds
Visibility 6.2 miles
UV 2 out of 16
Clouds Scattered Clouds (SCT) : 2600 ft
Yesterday's Maximum 72°F
Yesterday's Minimum 54°F approx.
Yesterday's Heating Degree Days 2 approx.
Sunrise3:50 AM MSK
Sunset7:22 PM MSK
Moon Rise12:19 AM MSK
Moon Set6:09 PM MSK
Moon PhaseMoon Phase
Waning Crescent
Raw METARMETAR UUYY 191230Z 19004MPS 9999 SCT026CB 19/15 Q1018 R19/CLRD61 NOSIG RMK QFE755/1007


Monday
. High: 75° F.
Tuesday
. High: 77° F.
Wednesday
. High: 50° F.
Thursday
. High: 53° F.
Friday
. High: 57° F.
Saturday
. High: 55° F.
Sunday
. High: 50° F.
Monday
. High: 60° F.

Units: English | Metric

Find the Weather for any City, State or Zipcode, or Country:

U.S. State List | Severe Weather | Tropical Storms | Ski Conditions
United States | Canada | Central America | South America | Asia | Europe | Australia | Africa | Islands

Weather Underground

© Copyright 2017
The Weather Company, LLC